sensor_id;sensor_type;location;lat;lon;timestamp;temperature;humidity
49224;DHT22;35050;51.316;5.994;2023-04-24T00:00:55;11.30;99.90
49224;DHT22;35050;51.316;5.994;2023-04-24T00:03:26;11.30;99.90
49224;DHT22;35050;51.316;5.994;2023-04-24T00:05:56;11.40;99.90
49224;DHT22;35050;51.316;5.994;2023-04-24T00:08:21;11.20;99.90
49224;DHT22;35050;51.316;5.994;2023-04-24T00:10:49;11.30;99.90
49224;DHT22;35050;51.316;5.994;2023-04-24T00:13:14;11.20;99.90
49224;DHT22;35050;51.316;5.994;2023-04-24T00:15:40;11.00;99.90
49224;DHT22;35050;51.316;5.994;2023-04-24T00:18:06;11.10;99.90
49224;DHT22;35050;51.316;5.994;2023-04-24T00:20:31;11.10;99.90
49224;DHT22;35050;51.316;5.994;2023-04-24T00:23:06;11.10;99.90
49224;DHT22;35050;51.316;5.994;2023-04-24T00:25:32;11.10;99.90
49224;DHT22;35050;51.316;5.994;2023-04-24T00:27:57;11.00;99.90
49224;DHT22;35050;51.316;5.994;2023-04-24T00:30:23;11.00;99.90
49224;DHT22;35050;51.316;5.994;2023-04-24T00:32:49;11.10;99.90
49224;DHT22;35050;51.316;5.994;2023-04-24T00:35:14;11.00;99.90
49224;DHT22;35050;51.316;5.994;2023-04-24T00:37:40;11.00;99.90
49224;DHT22;35050;51.316;5.994;2023-04-24T00:40:06;10.90;99.90
49224;DHT22;35050;51.316;5.994;2023-04-24T00:42:32;10.80;99.90
49224;DHT22;35050;51.316;5.994;2023-04-24T00:44:58;10.90;99.90
49224;DHT22;35050;51.316;5.994;2023-04-24T00:47:25;10.90;99.90
49224;DHT22;35050;51.316;5.994;2023-04-24T00:49:51;10.80;99.90
49224;DHT22;35050;51.316;5.994;2023-04-24T00:52:16;10.90;99.90
49224;DHT22;35050;51.316;5.994;2023-04-24T00:54:44;10.90;99.90
49224;DHT22;35050;51.316;5.994;2023-04-24T00:57:10;10.90;99.90
49224;DHT22;35050;51.316;5.994;2023-04-24T00:59:36;10.80;99.90
49224;DHT22;35050;51.316;5.994;2023-04-24T01:02:02;10.90;99.90
49224;DHT22;35050;51.316;5.994;2023-04-24T01:04:28;10.80;99.90
49224;DHT22;35050;51.316;5.994;2023-04-24T01:06:55;10.80;99.90
49224;DHT22;35050;51.316;5.994;2023-04-24T01:09:23;10.80;99.90
49224;DHT22;35050;51.316;5.994;2023-04-24T01:11:49;10.80;99.90
49224;DHT22;35050;51.316;5.994;2023-04-24T01:14:15;10.90;99.90
49224;DHT22;35050;51.316;5.994;2023-04-24T01:16:41;10.90;99.90
49224;DHT22;35050;51.316;5.994;2023-04-24T01:19:07;10.90;99.90
49224;DHT22;35050;51.316;5.994;2023-04-24T01:21:36;10.90;99.90
49224;DHT22;35050;51.316;5.994;2023-04-24T01:24:03;10.90;99.90
49224;DHT22;35050;51.316;5.994;2023-04-24T01:26:29;10.70;99.90
49224;DHT22;35050;51.316;5.994;2023-04-24T01:28:55;10.80;99.90
49224;DHT22;35050;51.316;5.994;2023-04-24T01:31:21;10.80;99.90
49224;DHT22;35050;51.316;5.994;2023-04-24T01:33:47;10.80;99.90
49224;DHT22;35050;51.316;5.994;2023-04-24T01:36:13;10.70;99.90
49224;DHT22;35050;51.316;5.994;2023-04-24T01:38:39;10.70;99.90
49224;DHT22;35050;51.316;5.994;2023-04-24T01:41:05;10.80;99.90
49224;DHT22;35050;51.316;5.994;2023-04-24T01:43:31;10.70;99.90
49224;DHT22;35050;51.316;5.994;2023-04-24T01:45:57;10.80;99.90
49224;DHT22;35050;51.316;5.994;2023-04-24T01:48:23;10.80;99.90
49224;DHT22;35050;51.316;5.994;2023-04-24T01:50:48;10.80;99.90
49224;DHT22;35050;51.316;5.994;2023-04-24T01:53:14;10.90;99.90
49224;DHT22;35050;51.316;5.994;2023-04-24T01:55:40;10.70;99.90
49224;DHT22;35050;51.316;5.994;2023-04-24T01:58:06;10.80;99.90
49224;DHT22;35050;51.316;5.994;2023-04-24T02:00:32;10.70;99.90
49224;DHT22;35050;51.316;5.994;2023-04-24T02:02:58;10.70;99.90
49224;DHT22;35050;51.316;5.994;2023-04-24T02:05:24;10.70;99.90
49224;DHT22;35050;51.316;5.994;2023-04-24T02:07:50;10.70;99.90
49224;DHT22;35050;51.316;5.994;2023-04-24T02:10:15;10.70;99.90
49224;DHT22;35050;51.316;5.994;2023-04-24T02:12:41;10.70;99.90
49224;DHT22;35050;51.316;5.994;2023-04-24T02:15:07;10.70;99.90
49224;DHT22;35050;51.316;5.994;2023-04-24T02:17:32;10.80;99.90
49224;DHT22;35050;51.316;5.994;2023-04-24T02:19:58;10.70;99.90
49224;DHT22;35050;51.316;5.994;2023-04-24T02:22:24;10.70;99.90
49224;DHT22;35050;51.316;5.994;2023-04-24T02:24:49;10.70;99.90
49224;DHT22;35050;51.316;5.994;2023-04-24T02:27:15;10.70;99.90
49224;DHT22;35050;51.316;5.994;2023-04-24T02:29:41;10.60;99.90
49224;DHT22;35050;51.316;5.994;2023-04-24T02:32:06;10.60;99.90
49224;DHT22;35050;51.316;5.994;2023-04-24T02:34:32;10.60;99.90
49224;DHT22;35050;51.316;5.994;2023-04-24T02:36:57;10.60;99.90
49224;DHT22;35050;51.316;5.994;2023-04-24T02:39:23;10.80;99.90
49224;DHT22;35050;51.316;5.994;2023-04-24T02:41:49;10.80;99.90
49224;DHT22;35050;51.316;5.994;2023-04-24T02:44:14;10.50;99.90
49224;DHT22;35050;51.316;5.994;2023-04-24T02:46:40;10.70;99.90
49224;DHT22;35050;51.316;5.994;2023-04-24T02:49:07;10.70;99.90
49224;DHT22;35050;51.316;5.994;2023-04-24T02:51:33;10.70;99.90
49224;DHT22;35050;51.316;5.994;2023-04-24T02:53:58;10.60;99.90
49224;DHT22;35050;51.316;5.994;2023-04-24T02:56:24;10.60;99.90
49224;DHT22;35050;51.316;5.994;2023-04-24T02:58:50;10.80;99.90
49224;DHT22;35050;51.316;5.994;2023-04-24T03:01:15;10.80;99.90
49224;DHT22;35050;51.316;5.994;2023-04-24T03:03:41;10.60;99.90
49224;DHT22;35050;51.316;5.994;2023-04-24T03:06:07;10.80;99.90
49224;DHT22;35050;51.316;5.994;2023-04-24T03:08:33;10.70;99.90
49224;DHT22;35050;51.316;5.994;2023-04-24T03:10:59;10.60;99.90
49224;DHT22;35050;51.316;5.994;2023-04-24T03:13:25;10.60;99.90
49224;DHT22;35050;51.316;5.994;2023-04-24T03:15:51;10.60;99.90
49224;DHT22;35050;51.316;5.994;2023-04-24T03:18:17;10.50;99.90
49224;DHT22;35050;51.316;5.994;2023-04-24T03:20:45;10.50;99.90
49224;DHT22;35050;51.316;5.994;2023-04-24T03:23:10;10.50;99.90
49224;DHT22;35050;51.316;5.994;2023-04-24T03:25:36;10.60;99.90
49224;DHT22;35050;51.316;5.994;2023-04-24T03:28:02;10.50;99.90
49224;DHT22;35050;51.316;5.994;2023-04-24T03:30:27;10.60;99.90
49224;DHT22;35050;51.316;5.994;2023-04-24T03:32:53;10.50;99.90
49224;DHT22;35050;51.316;5.994;2023-04-24T03:35:18;10.40;99.90
49224;DHT22;35050;51.316;5.994;2023-04-24T03:37:44;10.40;99.90
49224;DHT22;35050;51.316;5.994;2023-04-24T03:40:10;10.40;99.90
49224;DHT22;35050;51.316;5.994;2023-04-24T03:42:36;10.40;99.90
49224;DHT22;35050;51.316;5.994;2023-04-24T03:45:02;10.40;99.90
49224;DHT22;35050;51.316;5.994;2023-04-24T03:47:28;10.40;99.90
49224;DHT22;35050;51.316;5.994;2023-04-24T03:49:54;10.50;99.90
49224;DHT22;35050;51.316;5.994;2023-04-24T03:52:21;10.50;99.90
49224;DHT22;35050;51.316;5.994;2023-04-24T03:54:46;10.40;99.90
49224;DHT22;35050;51.316;5.994;2023-04-24T03:57:12;10.40;99.90
49224;DHT22;35050;51.316;5.994;2023-04-24T03:59:37;10.40;99.90
49224;DHT22;35050;51.316;5.994;2023-04-24T04:02:03;10.40;99.90
49224;DHT22;35050;51.316;5.994;2023-04-24T04:04:29;10.30;99.90
49224;DHT22;35050;51.316;5.994;2023-04-24T04:06:54;10.30;99.90
49224;DHT22;35050;51.316;5.994;2023-04-24T04:09:20;10.20;99.90
49224;DHT22;35050;51.316;5.994;2023-04-24T04:11:45;10.30;99.90
49224;DHT22;35050;51.316;5.994;2023-04-24T04:14:11;10.30;99.90
49224;DHT22;35050;51.316;5.994;2023-04-24T04:16:37;10.10;99.90
49224;DHT22;35050;51.316;5.994;2023-04-24T04:19:04;10.10;99.90
49224;DHT22;35050;51.316;5.994;2023-04-24T04:21:30;10.20;99.90
49224;DHT22;35050;51.316;5.994;2023-04-24T04:23:57;10.20;99.90
49224;DHT22;35050;51.316;5.994;2023-04-24T04:26:23;10.10;99.90
49224;DHT22;35050;51.316;5.994;2023-04-24T04:28:51;10.10;99.90
49224;DHT22;35050;51.316;5.994;2023-04-24T04:31:17;10.20;99.90
49224;DHT22;35050;51.316;5.994;2023-04-24T04:33:42;10.20;99.90
49224;DHT22;35050;51.316;5.994;2023-04-24T04:36:09;10.10;99.90
49224;DHT22;35050;51.316;5.994;2023-04-24T04:38:34;10.00;99.90
49224;DHT22;35050;51.316;5.994;2023-04-24T04:41:00;10.00;99.90
49224;DHT22;35050;51.316;5.994;2023-04-24T04:43:26;10.00;99.90
49224;DHT22;35050;51.316;5.994;2023-04-24T04:45:52;9.90;99.90
49224;DHT22;35050;51.316;5.994;2023-04-24T04:48:19;10.00;99.90
49224;DHT22;35050;51.316;5.994;2023-04-24T04:50:45;10.00;99.90
49224;DHT22;35050;51.316;5.994;2023-04-24T04:53:11;10.00;99.90
49224;DHT22;35050;51.316;5.994;2023-04-24T04:55:37;10.00;99.90
49224;DHT22;35050;51.316;5.994;2023-04-24T04:58:03;10.10;99.90
49224;DHT22;35050;51.316;5.994;2023-04-24T05:00:29;10.00;99.90
49224;DHT22;35050;51.316;5.994;2023-04-24T05:02:59;10.00;99.90
49224;DHT22;35050;51.316;5.994;2023-04-24T05:05:25;10.00;99.90
49224;DHT22;35050;51.316;5.994;2023-04-24T05:07:51;10.00;99.90
49224;DHT22;35050;51.316;5.994;2023-04-24T05:10:17;9.90;99.90
49224;DHT22;35050;51.316;5.994;2023-04-24T05:12:42;9.90;99.90
49224;DHT22;35050;51.316;5.994;2023-04-24T05:15:08;9.90;99.90
49224;DHT22;35050;51.316;5.994;2023-04-24T05:17:34;9.80;99.90
49224;DHT22;35050;51.316;5.994;2023-04-24T05:20:00;9.80;99.90
49224;DHT22;35050;51.316;5.994;2023-04-24T05:22:26;9.70;99.90
49224;DHT22;35050;51.316;5.994;2023-04-24T05:24:51;9.70;99.90
49224;DHT22;35050;51.316;5.994;2023-04-24T05:27:17;9.80;99.90
49224;DHT22;35050;51.316;5.994;2023-04-24T05:29:43;9.80;99.90
49224;DHT22;35050;51.316;5.994;2023-04-24T05:32:09;9.70;99.90
49224;DHT22;35050;51.316;5.994;2023-04-24T05:34:36;9.70;99.90
49224;DHT22;35050;51.316;5.994;2023-04-24T05:37:02;9.70;99.90
49224;DHT22;35050;51.316;5.994;2023-04-24T05:39:28;9.70;99.90
49224;DHT22;35050;51.316;5.994;2023-04-24T05:41:54;9.70;99.90
49224;DHT22;35050;51.316;5.994;2023-04-24T05:44:20;9.70;99.90
49224;DHT22;35050;51.316;5.994;2023-04-24T05:46:46;9.70;99.90
49224;DHT22;35050;51.316;5.994;2023-04-24T05:49:11;9.70;99.90
49224;DHT22;35050;51.316;5.994;2023-04-24T05:51:37;9.60;99.90
49224;DHT22;35050;51.316;5.994;2023-04-24T05:54:04;9.70;99.90
49224;DHT22;35050;51.316;5.994;2023-04-24T05:56:30;9.70;99.90
49224;DHT22;35050;51.316;5.994;2023-04-24T05:58:56;9.70;99.90
49224;DHT22;35050;51.316;5.994;2023-04-24T06:01:22;9.70;99.90
49224;DHT22;35050;51.316;5.994;2023-04-24T06:03:48;9.70;99.90
49224;DHT22;35050;51.316;5.994;2023-04-24T06:06:13;9.70;99.90
49224;DHT22;35050;51.316;5.994;2023-04-24T06:08:39;9.70;99.90
49224;DHT22;35050;51.316;5.994;2023-04-24T06:11:05;9.80;99.90
49224;DHT22;35050;51.316;5.994;2023-04-24T06:13:30;9.70;99.90
49224;DHT22;35050;51.316;5.994;2023-04-24T06:15:56;9.50;99.90
49224;DHT22;35050;51.316;5.994;2023-04-24T06:18:22;9.60;99.90
49224;DHT22;35050;51.316;5.994;2023-04-24T06:20:47;9.60;99.90
49224;DHT22;35050;51.316;5.994;2023-04-24T06:23:13;9.50;99.90
49224;DHT22;35050;51.316;5.994;2023-04-24T06:25:39;9.40;99.90
49224;DHT22;35050;51.316;5.994;2023-04-24T06:28:05;9.30;99.90
49224;DHT22;35050;51.316;5.994;2023-04-24T06:30:31;9.30;99.90
49224;DHT22;35050;51.316;5.994;2023-04-24T06:32:56;9.20;99.90
49224;DHT22;35050;51.316;5.994;2023-04-24T06:35:22;9.30;99.90
49224;DHT22;35050;51.316;5.994;2023-04-24T06:37:48;9.20;99.90
49224;DHT22;35050;51.316;5.994;2023-04-24T06:40:14;9.20;99.90
49224;DHT22;35050;51.316;5.994;2023-04-24T06:42:40;9.10;99.90
49224;DHT22;35050;51.316;5.994;2023-04-24T06:45:06;9.20;99.90
49224;DHT22;35050;51.316;5.994;2023-04-24T06:47:31;9.20;99.90
49224;DHT22;35050;51.316;5.994;2023-04-24T06:49:58;9.20;99.90
49224;DHT22;35050;51.316;5.994;2023-04-24T06:52:23;9.10;99.90
49224;DHT22;35050;51.316;5.994;2023-04-24T06:54:49;9.20;99.90
49224;DHT22;35050;51.316;5.994;2023-04-24T06:57:15;9.00;99.90
49224;DHT22;35050;51.316;5.994;2023-04-24T06:59:42;9.00;99.90
49224;DHT22;35050;51.316;5.994;2023-04-24T07:02:07;8.90;99.90
49224;DHT22;35050;51.316;5.994;2023-04-24T07:04:33;8.90;99.90
49224;DHT22;35050;51.316;5.994;2023-04-24T07:06:59;9.00;99.90
49224;DHT22;35050;51.316;5.994;2023-04-24T07:09:26;8.90;99.90
49224;DHT22;35050;51.316;5.994;2023-04-24T07:11:52;9.00;99.90
49224;DHT22;35050;51.316;5.994;2023-04-24T07:14:19;8.90;99.90
49224;DHT22;35050;51.316;5.994;2023-04-24T07:16:45;8.90;99.90
49224;DHT22;35050;51.316;5.994;2023-04-24T07:19:11;9.00;99.90
49224;DHT22;35050;51.316;5.994;2023-04-24T07:21:37;8.80;99.90
49224;DHT22;35050;51.316;5.994;2023-04-24T07:24:02;8.80;99.90
49224;DHT22;35050;51.316;5.994;2023-04-24T07:26:29;8.80;99.90
49224;DHT22;35050;51.316;5.994;2023-04-24T07:28:55;8.80;99.90
49224;DHT22;35050;51.316;5.994;2023-04-24T07:31:21;9.00;99.90
49224;DHT22;35050;51.316;5.994;2023-04-24T07:33:48;9.00;99.90
49224;DHT22;35050;51.316;5.994;2023-04-24T07:36:14;9.10;99.90
49224;DHT22;35050;51.316;5.994;2023-04-24T07:38:45;9.10;99.90
49224;DHT22;35050;51.316;5.994;2023-04-24T07:41:14;9.10;99.90
49224;DHT22;35050;51.316;5.994;2023-04-24T07:43:40;9.20;99.90
49224;DHT22;35050;51.316;5.994;2023-04-24T07:46:06;9.20;99.90
49224;DHT22;35050;51.316;5.994;2023-04-24T07:48:32;9.20;99.90
49224;DHT22;35050;51.316;5.994;2023-04-24T07:50:58;9.20;99.90
49224;DHT22;35050;51.316;5.994;2023-04-24T07:53:23;9.20;99.90
49224;DHT22;35050;51.316;5.994;2023-04-24T07:55:49;9.20;99.90
49224;DHT22;35050;51.316;5.994;2023-04-24T07:58:15;9.20;99.90
49224;DHT22;35050;51.316;5.994;2023-04-24T08:00:40;9.20;99.90
49224;DHT22;35050;51.316;5.994;2023-04-24T08:03:06;9.20;99.90
49224;DHT22;35050;51.316;5.994;2023-04-24T08:05:32;9.20;99.90
49224;DHT22;35050;51.316;5.994;2023-04-24T08:07:58;9.20;99.90
49224;DHT22;35050;51.316;5.994;2023-04-24T08:10:25;9.20;99.90
49224;DHT22;35050;51.316;5.994;2023-04-24T08:12:51;9.20;99.90
49224;DHT22;35050;51.316;5.994;2023-04-24T08:15:17;9.10;99.90
49224;DHT22;35050;51.316;5.994;2023-04-24T08:17:43;9.20;99.90
49224;DHT22;35050;51.316;5.994;2023-04-24T08:20:10;9.20;99.90
49224;DHT22;35050;51.316;5.994;2023-04-24T08:22:39;9.20;99.90
49224;DHT22;35050;51.316;5.994;2023-04-24T08:25:06;9.20;99.90
49224;DHT22;35050;51.316;5.994;2023-04-24T08:27:32;9.30;99.90
49224;DHT22;35050;51.316;5.994;2023-04-24T08:29:58;9.20;99.90
49224;DHT22;35050;51.316;5.994;2023-04-24T08:32:26;9.10;99.90
49224;DHT22;35050;51.316;5.994;2023-04-24T08:34:56;9.10;99.90
49224;DHT22;35050;51.316;5.994;2023-04-24T08:37:22;9.10;99.90
49224;DHT22;35050;51.316;5.994;2023-04-24T08:39:49;9.10;99.90
49224;DHT22;35050;51.316;5.994;2023-04-24T08:42:16;9.10;99.90
49224;DHT22;35050;51.316;5.994;2023-04-24T08:44:43;9.20;99.90
49224;DHT22;35050;51.316;5.994;2023-04-24T08:47:10;9.20;99.90
49224;DHT22;35050;51.316;5.994;2023-04-24T08:49:38;9.20;99.90
49224;DHT22;35050;51.316;5.994;2023-04-24T08:52:05;9.30;99.90
49224;DHT22;35050;51.316;5.994;2023-04-24T08:54:33;9.20;99.90
49224;DHT22;35050;51.316;5.994;2023-04-24T08:57:00;9.30;99.90
49224;DHT22;35050;51.316;5.994;2023-04-24T08:59:27;9.40;99.90
49224;DHT22;35050;51.316;5.994;2023-04-24T09:01:53;9.50;99.90
49224;DHT22;35050;51.316;5.994;2023-04-24T09:04:20;9.40;99.90
49224;DHT22;35050;51.316;5.994;2023-04-24T09:06:48;9.40;99.90
49224;DHT22;35050;51.316;5.994;2023-04-24T09:09:16;9.40;99.90
49224;DHT22;35050;51.316;5.994;2023-04-24T09:11:43;9.50;99.90
49224;DHT22;35050;51.316;5.994;2023-04-24T09:14:09;9.70;99.90
49224;DHT22;35050;51.316;5.994;2023-04-24T09:16:35;9.50;99.90
49224;DHT22;35050;51.316;5.994;2023-04-24T09:19:01;9.60;99.90
49224;DHT22;35050;51.316;5.994;2023-04-24T09:21:33;9.70;99.90
49224;DHT22;35050;51.316;5.994;2023-04-24T09:24:00;9.70;99.90
49224;DHT22;35050;51.316;5.994;2023-04-24T09:26:29;9.70;99.90
49224;DHT22;35050;51.316;5.994;2023-04-24T09:28:57;9.80;99.90
49224;DHT22;35050;51.316;5.994;2023-04-24T09:31:23;9.70;99.90
49224;DHT22;35050;51.316;5.994;2023-04-24T09:34:08;9.70;99.90
49224;DHT22;35050;51.316;5.994;2023-04-24T09:36:39;9.70;99.90
49224;DHT22;35050;51.316;5.994;2023-04-24T09:39:06;9.70;99.90
49224;DHT22;35050;51.316;5.994;2023-04-24T09:44:15;9.90;99.90
49224;DHT22;35050;51.316;5.994;2023-04-24T09:46:42;9.80;99.90
49224;DHT22;35050;51.316;5.994;2023-04-24T09:49:13;9.70;99.90
49224;DHT22;35050;51.316;5.994;2023-04-24T09:51:39;9.80;99.90
49224;DHT22;35050;51.316;5.994;2023-04-24T09:54:29;9.80;99.90
49224;DHT22;35050;51.316;5.994;2023-04-24T09:56:55;9.80;99.90
49224;DHT22;35050;51.316;5.994;2023-04-24T09:59:22;9.80;99.90
49224;DHT22;35050;51.316;5.994;2023-04-24T10:01:48;9.80;99.90
49224;DHT22;35050;51.316;5.994;2023-04-24T10:04:22;10.00;99.90
49224;DHT22;35050;51.316;5.994;2023-04-24T10:06:50;10.10;99.90
49224;DHT22;35050;51.316;5.994;2023-04-24T10:09:17;10.50;99.90
49224;DHT22;35050;51.316;5.994;2023-04-24T10:11:48;10.70;99.90
49224;DHT22;35050;51.316;5.994;2023-04-24T10:14:19;10.60;99.90
49224;DHT22;35050;51.316;5.994;2023-04-24T10:16:46;10.60;99.90
49224;DHT22;35050;51.316;5.994;2023-04-24T10:19:16;10.30;99.90
49224;DHT22;35050;51.316;5.994;2023-04-24T10:21:44;10.30;99.90
49224;DHT22;35050;51.316;5.994;2023-04-24T10:24:17;10.20;99.90
49224;DHT22;35050;51.316;5.994;2023-04-24T10:26:44;10.10;99.90
49224;DHT22;35050;51.316;5.994;2023-04-24T10:29:12;10.10;99.90
49224;DHT22;35050;51.316;5.994;2023-04-24T10:31:39;10.10;99.90
49224;DHT22;35050;51.316;5.994;2023-04-24T10:34:05;10.30;99.90
49224;DHT22;35050;51.316;5.994;2023-04-24T10:36:33;10.10;99.90
49224;DHT22;35050;51.316;5.994;2023-04-24T10:39:01;10.20;99.90
49224;DHT22;35050;51.316;5.994;2023-04-24T10:41:27;10.10;99.90
49224;DHT22;35050;51.316;5.994;2023-04-24T10:44:13;10.20;99.90
49224;DHT22;35050;51.316;5.994;2023-04-24T10:46:43;10.40;99.90
49224;DHT22;35050;51.316;5.994;2023-04-24T10:49:09;11.00;99.90
49224;DHT22;35050;51.316;5.994;2023-04-24T10:51:52;11.00;99.90
49224;DHT22;35050;51.316;5.994;2023-04-24T10:54:34;10.90;99.90
49224;DHT22;35050;51.316;5.994;2023-04-24T10:59:45;10.50;99.90
49224;DHT22;35050;51.316;5.994;2023-04-24T11:02:14;10.60;99.90
49224;DHT22;35050;51.316;5.994;2023-04-24T11:04:41;10.50;99.90
49224;DHT22;35050;51.316;5.994;2023-04-24T11:07:09;10.50;99.90
49224;DHT22;35050;51.316;5.994;2023-04-24T11:09:35;10.40;99.90
49224;DHT22;35050;51.316;5.994;2023-04-24T11:12:05;10.30;99.90
49224;DHT22;35050;51.316;5.994;2023-04-24T11:17:34;10.50;99.90
49224;DHT22;35050;51.316;5.994;2023-04-24T11:20:08;10.70;99.90
49224;DHT22;35050;51.316;5.994;2023-04-24T11:22:39;11.10;99.90
49224;DHT22;35050;51.316;5.994;2023-04-24T11:25:08;11.00;99.90
49224;DHT22;35050;51.316;5.994;2023-04-24T11:27:44;11.10;99.90
49224;DHT22;35050;51.316;5.994;2023-04-24T11:30:17;10.80;99.90
49224;DHT22;35050;51.316;5.994;2023-04-24T11:32:47;10.80;99.90
49224;DHT22;35050;51.316;5.994;2023-04-24T11:35:15;10.90;99.90
49224;DHT22;35050;51.316;5.994;2023-04-24T11:37:45;11.20;99.90
49224;DHT22;35050;51.316;5.994;2023-04-24T11:40:13;11.00;99.90
49224;DHT22;35050;51.316;5.994;2023-04-24T11:42:43;11.20;99.90
49224;DHT22;35050;51.316;5.994;2023-04-24T11:45:13;11.20;99.90
49224;DHT22;35050;51.316;5.994;2023-04-24T11:47:40;11.20;99.90
49224;DHT22;35050;51.316;5.994;2023-04-24T11:50:08;11.40;99.90
49224;DHT22;35050;51.316;5.994;2023-04-24T11:52:38;11.50;99.90
49224;DHT22;35050;51.316;5.994;2023-04-24T11:55:04;11.50;99.90
49224;DHT22;35050;51.316;5.994;2023-04-24T11:57:32;11.30;99.90
49224;DHT22;35050;51.316;5.994;2023-04-24T12:00:02;11.30;99.90
49224;DHT22;35050;51.316;5.994;2023-04-24T12:02:29;11.50;99.90
49224;DHT22;35050;51.316;5.994;2023-04-24T12:04:55;11.40;99.90
49224;DHT22;35050;51.316;5.994;2023-04-24T12:07:22;11.60;99.90
49224;DHT22;35050;51.316;5.994;2023-04-24T12:09:58;11.70;99.90
49224;DHT22;35050;51.316;5.994;2023-04-24T12:12:28;11.90;99.90
49224;DHT22;35050;51.316;5.994;2023-04-24T12:14:58;11.70;99.90
49224;DHT22;35050;51.316;5.994;2023-04-24T12:17:34;11.40;99.90
49224;DHT22;35050;51.316;5.994;2023-04-24T12:20:05;11.70;99.90
49224;DHT22;35050;51.316;5.994;2023-04-24T12:25:18;11.60;99.90
49224;DHT22;35050;51.316;5.994;2023-04-24T12:27:52;11.40;99.90
49224;DHT22;35050;51.316;5.994;2023-04-24T12:30:19;11.50;99.90
49224;DHT22;35050;51.316;5.994;2023-04-24T12:32:49;11.70;99.90
49224;DHT22;35050;51.316;5.994;2023-04-24T12:35:26;11.90;99.90
49224;DHT22;35050;51.316;5.994;2023-04-24T12:37:52;11.70;99.90
49224;DHT22;35050;51.316;5.994;2023-04-24T12:40:19;12.00;99.90
49224;DHT22;35050;51.316;5.994;2023-04-24T12:42:49;12.00;99.90
49224;DHT22;35050;51.316;5.994;2023-04-24T12:45:17;12.00;99.90
49224;DHT22;35050;51.316;5.994;2023-04-24T12:47:44;12.10;99.90
49224;DHT22;35050;51.316;5.994;2023-04-24T12:50:12;12.30;99.90
49224;DHT22;35050;51.316;5.994;2023-04-24T12:52:38;12.00;99.90
49224;DHT22;35050;51.316;5.994;2023-04-24T12:55:05;11.90;99.90
49224;DHT22;35050;51.316;5.994;2023-04-24T12:57:34;11.80;99.90
49224;DHT22;35050;51.316;5.994;2023-04-24T13:00:00;11.80;99.90
49224;DHT22;35050;51.316;5.994;2023-04-24T13:02:27;11.80;99.90
49224;DHT22;35050;51.316;5.994;2023-04-24T13:04:54;11.80;99.90
49224;DHT22;35050;51.316;5.994;2023-04-24T13:07:20;11.80;99.90
49224;DHT22;35050;51.316;5.994;2023-04-24T13:09:48;11.80;99.90
49224;DHT22;35050;51.316;5.994;2023-04-24T13:12:14;11.70;99.90
49224;DHT22;35050;51.316;5.994;2023-04-24T13:14:40;11.90;99.90
49224;DHT22;35050;51.316;5.994;2023-04-24T13:17:06;12.10;99.90
49224;DHT22;35050;51.316;5.994;2023-04-24T13:19:40;12.10;99.90
49224;DHT22;35050;51.316;5.994;2023-04-24T13:22:08;12.10;99.90
49224;DHT22;35050;51.316;5.994;2023-04-24T13:24:34;11.80;99.90
49224;DHT22;35050;51.316;5.994;2023-04-24T13:27:00;11.80;99.90
49224;DHT22;35050;51.316;5.994;2023-04-24T13:29:26;12.10;99.90
49224;DHT22;35050;51.316;5.994;2023-04-24T13:31:54;11.80;99.90
49224;DHT22;35050;51.316;5.994;2023-04-24T13:34:21;11.80;99.90
49224;DHT22;35050;51.316;5.994;2023-04-24T13:36:46;11.80;99.90
49224;DHT22;35050;51.316;5.994;2023-04-24T13:39:12;11.90;99.90
49224;DHT22;35050;51.316;5.994;2023-04-24T13:41:38;12.00;99.90
49224;DHT22;35050;51.316;5.994;2023-04-24T13:44:05;11.80;99.90
49224;DHT22;35050;51.316;5.994;2023-04-24T13:46:31;11.90;99.90
49224;DHT22;35050;51.316;5.994;2023-04-24T13:48:57;11.90;99.90
49224;DHT22;35050;51.316;5.994;2023-04-24T13:51:25;11.80;99.90
49224;DHT22;35050;51.316;5.994;2023-04-24T13:53:53;11.80;99.90
49224;DHT22;35050;51.316;5.994;2023-04-24T13:56:18;12.10;99.90
49224;DHT22;35050;51.316;5.994;2023-04-24T13:58:44;12.10;99.90
49224;DHT22;35050;51.316;5.994;2023-04-24T14:01:10;12.00;99.90
49224;DHT22;35050;51.316;5.994;2023-04-24T14:03:37;12.30;99.90
49224;DHT22;35050;51.316;5.994;2023-04-24T14:06:03;12.10;99.90
49224;DHT22;35050;51.316;5.994;2023-04-24T14:08:28;12.10;99.90
49224;DHT22;35050;51.316;5.994;2023-04-24T14:10:54;12.10;99.90
49224;DHT22;35050;51.316;5.994;2023-04-24T14:13:20;12.30;99.90
49224;DHT22;35050;51.316;5.994;2023-04-24T14:15:46;12.50;99.90
49224;DHT22;35050;51.316;5.994;2023-04-24T14:18:12;12.40;99.90
49224;DHT22;35050;51.316;5.994;2023-04-24T14:20:37;12.40;99.90
49224;DHT22;35050;51.316;5.994;2023-04-24T14:23:03;12.70;99.90
49224;DHT22;35050;51.316;5.994;2023-04-24T14:25:30;12.90;99.90
49224;DHT22;35050;51.316;5.994;2023-04-24T14:27:55;12.70;99.90
49224;DHT22;35050;51.316;5.994;2023-04-24T14:30:21;12.90;99.90
49224;DHT22;35050;51.316;5.994;2023-04-24T14:32:47;13.00;99.90
49224;DHT22;35050;51.316;5.994;2023-04-24T14:35:13;12.80;99.90
49224;DHT22;35050;51.316;5.994;2023-04-24T14:37:40;12.70;99.90
49224;DHT22;35050;51.316;5.994;2023-04-24T14:40:07;12.90;99.90
49224;DHT22;35050;51.316;5.994;2023-04-24T14:42:34;12.80;99.90
49224;DHT22;35050;51.316;5.994;2023-04-24T14:44:59;13.10;99.90
49224;DHT22;35050;51.316;5.994;2023-04-24T14:47:25;13.30;99.90
49224;DHT22;35050;51.316;5.994;2023-04-24T14:49:51;13.10;99.90
49224;DHT22;35050;51.316;5.994;2023-04-24T14:52:17;12.80;99.90
49224;DHT22;35050;51.316;5.994;2023-04-24T14:54:43;12.90;99.90
49224;DHT22;35050;51.316;5.994;2023-04-24T14:57:09;13.00;99.90
49224;DHT22;35050;51.316;5.994;2023-04-24T14:59:35;13.00;99.90
49224;DHT22;35050;51.316;5.994;2023-04-24T15:02:00;13.60;99.90
49224;DHT22;35050;51.316;5.994;2023-04-24T15:04:27;14.10;99.90
49224;DHT22;35050;51.316;5.994;2023-04-24T15:06:54;13.90;99.90
49224;DHT22;35050;51.316;5.994;2023-04-24T15:09:21;14.10;99.90
49224;DHT22;35050;51.316;5.994;2023-04-24T15:11:48;13.70;99.90
49224;DHT22;35050;51.316;5.994;2023-04-24T15:14:15;13.80;99.90
49224;DHT22;35050;51.316;5.994;2023-04-24T15:16:41;14.10;99.90
49224;DHT22;35050;51.316;5.994;2023-04-24T15:19:06;14.10;99.90
49224;DHT22;35050;51.316;5.994;2023-04-24T15:21:32;14.00;99.90
49224;DHT22;35050;51.316;5.994;2023-04-24T15:23:58;14.20;99.90
49224;DHT22;35050;51.316;5.994;2023-04-24T15:26:24;13.50;99.90
49224;DHT22;35050;51.316;5.994;2023-04-24T15:28:51;13.10;99.90
49224;DHT22;35050;51.316;5.994;2023-04-24T15:31:17;12.80;99.90
49224;DHT22;35050;51.316;5.994;2023-04-24T15:33:43;13.10;99.90
49224;DHT22;35050;51.316;5.994;2023-04-24T15:36:09;13.60;99.90
49224;DHT22;35050;51.316;5.994;2023-04-24T15:38:35;13.80;99.90
49224;DHT22;35050;51.316;5.994;2023-04-24T15:41:02;13.90;99.90
49224;DHT22;35050;51.316;5.994;2023-04-24T15:43:27;13.70;99.90